This is the latest recevied weather packets stored in our database for station/object TG9SRP-22. If no packets are shown the sender has not sent any weather packets the latest 10 day(s).
| Time | Temp. | Humidity | Pressure | Rain* | Wind** | Luminosity | Snow |
|---|---|---|---|---|---|---|---|
| 1777750550 | 26.67° C | 51% | 1010 hPa | 0 mm | - | - | - |
| 1777749950 | 26.67° C | 42% | 1011 hPa | 0 mm | - | - | - |
| 1777749349 | 27.22° C | 42% | 1011 hPa | 0 mm | - | - | - |
| 1777748749 | 26.11° C | 54% | 1011 hPa | 0 mm | - | - | - |
| 1777748148 | 26.11° C | 54% | 1011 hPa | 0 mm | - | - | - |
| 1777747547 | 26.11° C | 54% | 1011 hPa | 0 mm | - | - | - |
| 1777746947 | 25.56° C | 54% | 1011 hPa | 0 mm | - | - | - |
| 1777746346 | 25.56° C | 42% | 1012 hPa | 0 mm | - | - | - |
| 1777745745 | 26.11° C | 42% | 1012 hPa | 0 mm | - | - | - |
| 1777745145 | 26.11° C | 42% | 1012 hPa | 0 mm | - | - | - |
| 1777744544 | 23.89° C | 47% | 1012 hPa | 0 mm | - | - | - |
| 1777743943 | 23.89° C | 47% | 1012 hPa | 0 mm | - | - | - |
| 1777743343 | 23.89° C | 47% | 1012 hPa | 0 mm | - | - | - |
| 1777742742 | 23.89° C | 47% | 1013 hPa | 0 mm | - | - | - |
| 1777742142 | 23.89° C | 47% | 1013 hPa | 0 mm | - | - | - |
| 1777741541 | 23.33° C | 50% | 1013 hPa | 0 mm | - | - | - |
| 1777740940 | 23.33° C | 50% | 1013 hPa | 0 mm | - | - | - |
| 1777740338 | 23.33° C | 50% | 1013 hPa | 0 mm | - | - | - |
| 1777739737 | 23.33° C | 50% | 1013 hPa | 0 mm | - | - | - |
| 1777739137 | 23.33° C | 50% | 1014 hPa | 0 mm | - | - | - |
| 1777738536 | 23.33° C | 50% | 1014 hPa | 0 mm | - | - | - |
| 1777737936 | 23.33° C | 50% | 1014 hPa | 0 mm | - | - | - |
| 1777737335 | 21.11° C | 56% | 1014 hPa | 0 mm | - | - | - |
| 1777736734 | 21.11° C | 56% | 1014 hPa | 0 mm | - | - | - |
| 1777736134 | 21.11° C | 56% | 1014 hPa | 0 mm | - | - | - |
* Rain latest hour (hover to see other rain measurements)
** Current wind speed in m/s (hover to see current wind gust speed)